Prior Lake, MN (55372)

12:05 PM CST on January 30, 2015 (GMT -0600)
The Wilds Golf Course | Change Station
CLOSE
Current Station
Personal Weather Station
Location: Prior Lake, MN
Elevation: 1033 ft
Nearby Weather Stations

Elev 1033 ft 44.73 °N, 93.46 °W | Updated 6 seconds ago

Partly Cloudy
Partly Cloudy
22.1 °F
Feels Like 22 °F
N
0.0
Wind Variable Wind from South
Gusts 5.0 mph

Today
High -- | Low -- °F
--% Chance of Precip.
Yesterday
High -- | Low -- °F
Precip. -- in
7:35 AM 5:19 PM
Waxing Gibbous, 84% visible
Pressure 30.51 in
Visibility 10.0 miles
Clouds Scattered Clouds 12000 ft
Windchill 22 °F
Dew Point 15 °F
Humidity 74%
Rainfall 0.00 in
Snow Depth Not available.
UV 2 out of 12
Pollen .10 out of 12
Air Quality Not available.
Flu Activity Not available.
METAR KFCM 301753Z 21006KT 10SM SCT120 M07/M12 A3046 RMK AO2 SLP332 T10671117 11067 21117 58016

More Conditions Fewer Conditions

Pressure 30.51 in
Visibility 10.0 miles
Clouds Scattered Clouds 12000 ft
Windchill 22 °F
Dew Point 15 °F
Humidity 74%
Rainfall 0.00 in
Snow Depth Not available.
UV 2 out of 12
Pollen .10 out of 12
Air Quality Not available.
Flu Activity Not available.
METAR KFCM 301753Z 21006KT 10SM SCT120 M07/M12 A3046 RMK AO2 SLP332 T10671117 11067 21117 58016

More Conditions Fewer Conditions

10-Day Weather Forecast

Almanac

Astronomy

Jan. 30, 2015 Rise Set
Actual Time
Civil Twilight
Nautical Twilight
Astronomical Twilight
Moon
Length of Visible Light
Length of Day
Tomorrow will be .
, % of the Moon is Illuminated

Today's Extremes

State Highs State Lows

Community

WunderPhotos

Upload Photos

1,791,845 photos uploaded!

WunderBlogs® & News

Nearby

Air Quality

  Air Quality AQ Index Pollutant
Not available.

Snow Depth

Station Depth Elevation

Earthquake Activity

City Distance Mag. Time & Date
Minimum magnitude displayed is 2.5.

Coastal Water Temperatures

Place Temperature

Nearby Weather Stations